createdAt,value
2019-03-31T00:00:09.762Z,86.50
2019-03-31T00:02:36.544Z,86.40
2019-03-31T00:05:03.508Z,86.40
2019-03-31T00:07:30.290Z,86.80
2019-03-31T00:09:57.133Z,86.90
2019-03-31T00:12:23.922Z,87.50
2019-03-31T00:14:50.761Z,87.70
2019-03-31T00:17:17.604Z,87.90
2019-03-31T00:19:44.428Z,88.50
2019-03-31T00:22:11.269Z,88.60
2019-03-31T00:24:38.745Z,88.30
2019-03-31T00:27:05.585Z,88.50
2019-03-31T00:29:32.365Z,88.20
2019-03-31T00:31:59.266Z,87.60
2019-03-31T00:34:26.100Z,87.50
2019-03-31T00:36:52.891Z,87.60
2019-03-31T00:39:19.708Z,87.70
2019-03-31T00:41:46.515Z,87.60
2019-03-31T00:44:13.360Z,87.50
2019-03-31T00:46:40.148Z,87.80
2019-03-31T00:49:06.976Z,87.50
2019-03-31T00:51:35.709Z,87.60
2019-03-31T00:54:02.566Z,87.20
2019-03-31T00:56:29.348Z,86.90
2019-03-31T00:58:56.139Z,86.60
2019-03-31T01:01:35.662Z,86.40
2019-03-31T01:03:53.457Z,86.60
2019-03-31T01:06:20.685Z,86.70
2019-03-31T01:08:47.669Z,87.50
2019-03-31T01:11:17.516Z,87.40
2019-03-31T01:13:44.796Z,86.90
2019-03-31T01:16:13.337Z,86.60
2019-03-31T01:18:40.461Z,86.60
2019-03-31T01:21:07.284Z,87.20
2019-03-31T01:23:34.224Z,87.20
2019-03-31T01:26:01.156Z,87.30
2019-03-31T01:28:27.944Z,87.10
2019-03-31T01:30:54.788Z,87.10
2019-03-31T01:33:21.728Z,86.90
2019-03-31T01:35:48.548Z,87.30
2019-03-31T01:38:15.330Z,87.60
2019-03-31T01:40:42.165Z,87.30
2019-03-31T01:43:09.349Z,87.40
2019-03-31T01:45:36.180Z,87.70
2019-03-31T01:48:03.571Z,88.00
2019-03-31T01:50:30.459Z,88.50
2019-03-31T01:52:57.297Z,88.80
2019-03-31T01:55:24.127Z,89.00
2019-03-31T01:57:50.957Z,89.00
2019-03-31T02:00:19.607Z,88.70
2019-03-31T02:02:46.396Z,88.70
2019-03-31T02:05:13.337Z,88.50
2019-03-31T02:07:40.120Z,88.30
2019-03-31T02:10:07.054Z,88.50
2019-03-31T02:12:33.828Z,88.70
2019-03-31T02:15:00.672Z,88.80
2019-03-31T02:17:27.506Z,88.40
2019-03-31T02:19:54.435Z,88.60
2019-03-31T02:22:21.216Z,88.60
2019-03-31T02:24:48.049Z,88.80
2019-03-31T02:27:14.889Z,88.90
2019-03-31T02:29:41.729Z,89.30
2019-03-31T02:32:22.601Z,89.50
2019-03-31T02:34:37.111Z,89.70
2019-03-31T02:37:03.943Z,89.70
2019-03-31T02:39:30.726Z,89.40
2019-03-31T02:41:57.567Z,89.50
2019-03-31T02:44:24.349Z,89.50
2019-03-31T02:46:51.179Z,89.60
2019-03-31T02:49:17.954Z,89.80
2019-03-31T02:51:44.837Z,90.00
2019-03-31T02:54:11.622Z,89.70
2019-03-31T02:56:39.855Z,89.60
2019-03-31T02:59:06.839Z,89.80
2019-03-31T03:01:34.177Z,90.10
2019-03-31T03:04:03.134Z,89.90
2019-03-31T03:06:30.100Z,89.60
2019-03-31T03:09:05.043Z,89.60
2019-03-31T03:11:33.469Z,89.50
2019-03-31T03:14:04.065Z,89.50
2019-03-31T03:16:30.841Z,89.50
2019-03-31T03:18:57.622Z,89.50
2019-03-31T03:21:25.084Z,89.70
2019-03-31T03:23:52.601Z,89.60
2019-03-31T03:26:19.430Z,90.00
2019-03-31T03:28:46.413Z,90.20
2019-03-31T03:31:16.054Z,89.60
2019-03-31T03:33:42.448Z,89.80
2019-03-31T03:36:09.220Z,90.00
2019-03-31T03:38:36.066Z,90.10
2019-03-31T03:41:02.981Z,90.10
2019-03-31T03:43:29.815Z,90.10
2019-03-31T03:45:56.595Z,89.70
2019-03-31T03:48:23.426Z,89.70
2019-03-31T03:50:50.289Z,90.00
2019-03-31T03:53:17.082Z,90.00
2019-03-31T03:55:43.904Z,90.00
2019-03-31T03:58:10.741Z,90.30
2019-03-31T04:00:37.586Z,90.40
2019-03-31T04:03:04.353Z,90.30
2019-03-31T04:05:31.181Z,90.30
2019-03-31T04:07:57.972Z,90.50
2019-03-31T04:10:43.794Z,90.90
2019-03-31T04:13:10.621Z,91.50
2019-03-31T04:15:37.556Z,91.30
2019-03-31T04:18:04.376Z,91.40
2019-03-31T04:20:31.233Z,91.20
2019-03-31T04:22:58.046Z,91.00
2019-03-31T04:25:24.889Z,91.10
2019-03-31T04:27:51.658Z,91.00
2019-03-31T04:30:18.488Z,91.30
2019-03-31T04:32:45.335Z,91.30
2019-03-31T04:35:12.105Z,91.50
2019-03-31T04:37:38.951Z,91.20
2019-03-31T04:40:05.793Z,90.80
2019-03-31T04:42:32.580Z,90.50
2019-03-31T04:44:59.420Z,90.20
2019-03-31T04:47:26.200Z,90.10
2019-03-31T04:49:52.974Z,89.90
2019-03-31T04:52:19.809Z,90.00
2019-03-31T04:54:47.488Z,89.80
2019-03-31T04:57:14.319Z,89.60
2019-03-31T04:59:41.166Z,89.50
2019-03-31T05:02:08.046Z,89.60
2019-03-31T05:04:34.864Z,89.80
2019-03-31T05:07:01.652Z,90.40
2019-03-31T05:09:28.484Z,90.20
2019-03-31T05:11:55.319Z,90.10
2019-03-31T05:14:22.104Z,90.20
2019-03-31T05:16:48.941Z,90.20
2019-03-31T05:19:15.774Z,90.20
2019-03-31T05:21:42.612Z,90.50
2019-03-31T05:24:09.405Z,90.80
2019-03-31T05:26:36.184Z,90.50
2019-03-31T05:29:03.026Z,90.30
2019-03-31T05:31:29.804Z,90.20
2019-03-31T05:33:56.664Z,89.50
2019-03-31T05:36:23.449Z,89.30
2019-03-31T05:38:50.279Z,88.80
2019-03-31T05:41:17.065Z,88.30
2019-03-31T05:43:43.898Z,88.50
2019-03-31T05:46:10.683Z,88.40
2019-03-31T05:48:37.524Z,88.20
2019-03-31T05:51:04.315Z,87.10
2019-03-31T05:53:31.141Z,86.30
2019-03-31T05:55:57.960Z,86.00
2019-03-31T05:58:24.745Z,85.30
2019-03-31T06:00:52.492Z,84.40
2019-03-31T06:03:19.281Z,83.90
2019-03-31T06:05:46.116Z,83.90
2019-03-31T06:08:12.914Z,83.50
2019-03-31T06:10:39.697Z,83.20
2019-03-31T06:13:06.534Z,82.30
2019-03-31T06:15:33.364Z,81.80
2019-03-31T06:18:00.152Z,81.10
2019-03-31T06:20:26.988Z,80.60
2019-03-31T06:22:53.816Z,80.10
2019-03-31T06:25:20.629Z,79.80
2019-03-31T06:27:47.460Z,80.40
2019-03-31T06:30:14.600Z,81.40
2019-03-31T06:32:41.381Z,81.70
2019-03-31T06:35:08.216Z,81.40
2019-03-31T06:37:35.009Z,81.40
2019-03-31T06:40:02.846Z,81.00
2019-03-31T06:42:29.773Z,81.50
2019-03-31T06:44:56.553Z,80.90
2019-03-31T06:47:23.391Z,80.40
2019-03-31T06:49:50.172Z,79.30
2019-03-31T06:52:17.017Z,79.10
2019-03-31T06:54:44.403Z,78.00
2019-03-31T06:57:11.184Z,76.90
2019-03-31T06:59:38.035Z,75.70
2019-03-31T07:02:05.179Z,74.40
2019-03-31T07:04:31.958Z,74.10
2019-03-31T07:06:58.800Z,74.00
2019-03-31T07:09:25.590Z,74.10
2019-03-31T07:11:52.416Z,73.90
2019-03-31T07:14:19.250Z,73.80
2019-03-31T07:16:46.093Z,74.60
2019-03-31T07:19:12.877Z,75.30
2019-03-31T07:21:39.650Z,74.50
2019-03-31T07:24:06.494Z,73.60
2019-03-31T07:26:33.274Z,73.20
2019-03-31T07:29:00.116Z,72.90
2019-03-31T07:31:26.951Z,72.20
2019-03-31T07:33:53.790Z,73.50
2019-03-31T07:36:20.679Z,72.00
2019-03-31T07:38:47.467Z,73.30
2019-03-31T07:41:14.352Z,72.80
2019-03-31T07:43:41.616Z,73.50
2019-03-31T07:46:08.465Z,72.60
2019-03-31T07:48:35.250Z,71.40
2019-03-31T07:51:02.053Z,71.40
2019-03-31T07:53:28.885Z,71.30
2019-03-31T07:55:55.714Z,71.60
2019-03-31T07:58:22.545Z,71.40
2019-03-31T08:00:49.321Z,70.20
2019-03-31T08:03:16.166Z,69.40
2019-03-31T08:05:43.113Z,68.90
2019-03-31T08:08:09.889Z,69.00
2019-03-31T08:10:36.728Z,67.60
2019-03-31T08:13:03.513Z,66.60
2019-03-31T08:15:30.356Z,67.40
2019-03-31T08:17:57.130Z,66.30
2019-03-31T08:20:23.929Z,66.90
2019-03-31T08:22:50.757Z,67.70
2019-03-31T08:25:17.697Z,67.80
2019-03-31T08:27:44.534Z,66.90
2019-03-31T08:30:14.221Z,66.70
2019-03-31T08:32:41.062Z,66.60
2019-03-31T08:35:08.948Z,66.10
2019-03-31T08:37:35.836Z,66.00
2019-03-31T08:40:03.933Z,66.20
2019-03-31T08:42:30.780Z,67.00
2019-03-31T08:44:57.617Z,66.00
2019-03-31T08:47:24.405Z,65.10
2019-03-31T08:49:51.247Z,65.80
2019-03-31T08:52:18.053Z,65.60
2019-03-31T08:54:44.921Z,64.80
2019-03-31T08:57:11.778Z,64.90
2019-03-31T08:59:38.561Z,64.50
2019-03-31T09:02:23.724Z,63.80
2019-03-31T09:04:50.573Z,63.70
2019-03-31T09:07:17.357Z,64.40
2019-03-31T09:09:44.197Z,63.80
2019-03-31T09:12:11.028Z,63.50
2019-03-31T09:14:37.817Z,64.10
2019-03-31T09:17:04.653Z,64.70
2019-03-31T09:19:31.441Z,64.50
2019-03-31T09:21:58.293Z,64.20
2019-03-31T09:24:25.073Z,63.70
2019-03-31T09:26:51.865Z,64.30
2019-03-31T09:29:18.723Z,62.90
2019-03-31T09:31:45.717Z,63.80
2019-03-31T09:34:12.564Z,64.00
2019-03-31T09:36:39.360Z,63.40
2019-03-31T09:39:06.206Z,63.40
2019-03-31T09:41:33.000Z,63.80
2019-03-31T09:43:59.840Z,63.50
2019-03-31T09:46:26.881Z,62.60
2019-03-31T09:48:53.733Z,63.10
2019-03-31T09:51:20.523Z,63.00
2019-03-31T09:53:47.813Z,63.30
2019-03-31T09:56:15.356Z,64.70
2019-03-31T09:58:42.311Z,64.80
2019-03-31T10:01:09.161Z,63.70
2019-03-31T10:03:35.946Z,63.90
2019-03-31T10:06:10.467Z,63.90
2019-03-31T10:08:31.982Z,57.80
2019-03-31T10:10:58.773Z,57.20
2019-03-31T10:13:25.617Z,58.00
2019-03-31T10:15:52.702Z,59.60
2019-03-31T10:18:19.548Z,57.40
2019-03-31T10:20:46.325Z,58.50
2019-03-31T10:23:13.149Z,57.90
2019-03-31T10:25:40.005Z,56.40
2019-03-31T10:28:06.836Z,57.60
2019-03-31T10:30:36.380Z,57.60
2019-03-31T10:33:04.313Z,56.60
2019-03-31T10:35:31.094Z,56.60
2019-03-31T10:37:57.935Z,57.60
2019-03-31T10:40:24.761Z,58.10
2019-03-31T10:42:51.601Z,59.30
2019-03-31T10:45:18.442Z,59.10
2019-03-31T10:47:45.235Z,57.70
2019-03-31T10:50:13.172Z,58.40
2019-03-31T10:52:40.025Z,57.60
2019-03-31T10:55:07.457Z,58.10
2019-03-31T10:57:34.342Z,57.90
2019-03-31T11:00:01.285Z,57.20
2019-03-31T11:02:28.380Z,58.30
2019-03-31T11:04:55.220Z,57.60
2019-03-31T11:07:22.044Z,56.80
2019-03-31T11:09:48.889Z,55.90
2019-03-31T11:12:15.685Z,55.80
2019-03-31T11:14:42.529Z,54.30
2019-03-31T11:17:09.416Z,54.10
2019-03-31T11:19:36.204Z,54.90
2019-03-31T11:22:04.840Z,55.00
2019-03-31T11:24:31.681Z,55.50
2019-03-31T11:26:58.471Z,53.90
2019-03-31T11:29:25.311Z,55.10
2019-03-31T11:31:52.090Z,55.60
2019-03-31T11:34:19.810Z,57.10
2019-03-31T11:36:46.860Z,56.30
2019-03-31T11:39:16.314Z,54.90
2019-03-31T11:41:42.368Z,54.40
2019-03-31T11:44:09.206Z,53.30
2019-03-31T11:46:35.998Z,52.50
2019-03-31T11:49:02.940Z,54.20
2019-03-31T11:51:29.721Z,54.30
2019-03-31T11:53:56.564Z,54.40
2019-03-31T11:56:23.396Z,53.30
2019-03-31T11:58:50.176Z,52.90
2019-03-31T12:01:17.065Z,54.80
2019-03-31T12:03:43.844Z,51.40
2019-03-31T12:06:11.327Z,52.40
2019-03-31T12:08:38.264Z,52.40
2019-03-31T12:11:05.156Z,53.10
2019-03-31T12:13:31.943Z,52.20
2019-03-31T12:15:59.536Z,52.50
2019-03-31T12:18:26.685Z,53.00
2019-03-31T12:20:53.511Z,52.50
2019-03-31T12:23:20.345Z,51.20
2019-03-31T12:25:47.134Z,52.40
2019-03-31T12:28:13.972Z,53.30
2019-03-31T12:30:40.759Z,51.80
2019-03-31T12:33:07.596Z,51.30
2019-03-31T12:35:34.402Z,52.30
2019-03-31T12:38:01.320Z,51.90
2019-03-31T12:40:37.517Z,52.70
2019-03-31T12:43:04.348Z,53.50
2019-03-31T12:45:31.360Z,54.50
2019-03-31T12:48:01.098Z,52.50
2019-03-31T12:50:27.026Z,51.60
2019-03-31T12:52:53.825Z,50.50
2019-03-31T12:55:20.685Z,52.10
2019-03-31T12:57:47.543Z,50.10
2019-03-31T13:00:14.424Z,51.90
2019-03-31T13:02:41.221Z,51.40
2019-03-31T13:05:08.122Z,50.20
2019-03-31T13:07:34.961Z,51.50
2019-03-31T13:10:01.876Z,51.80
2019-03-31T13:12:28.710Z,50.20
2019-03-31T13:14:55.864Z,49.60
2019-03-31T13:17:22.702Z,51.60
2019-03-31T13:19:49.957Z,50.80
2019-03-31T13:22:16.964Z,51.90
2019-03-31T13:24:44.034Z,51.30
2019-03-31T13:27:10.811Z,50.40
2019-03-31T13:29:38.416Z,49.20
2019-03-31T13:32:05.630Z,49.80
2019-03-31T13:34:32.478Z,48.80
2019-03-31T13:36:59.313Z,49.20
2019-03-31T13:39:26.248Z,49.90
2019-03-31T13:41:53.156Z,50.50
2019-03-31T13:44:20.688Z,50.10
2019-03-31T13:46:47.539Z,52.00
2019-03-31T13:49:14.332Z,51.90
2019-03-31T13:51:41.686Z,51.90
2019-03-31T13:54:08.464Z,52.00
2019-03-31T13:56:35.644Z,52.00
2019-03-31T13:59:03.289Z,51.70
2019-03-31T14:01:30.116Z,52.50
2019-03-31T14:03:56.957Z,52.60
2019-03-31T14:06:23.804Z,52.60
2019-03-31T14:08:50.589Z,53.60
2019-03-31T14:11:17.433Z,52.70
2019-03-31T14:13:45.177Z,51.50
2019-03-31T14:16:12.017Z,52.70
2019-03-31T14:18:38.856Z,51.70
2019-03-31T14:21:05.768Z,51.60
2019-03-31T14:23:32.615Z,51.60
2019-03-31T14:25:59.460Z,52.70
2019-03-31T14:28:26.248Z,51.70
2019-03-31T14:30:53.181Z,52.00
2019-03-31T14:33:19.956Z,52.20
2019-03-31T14:35:46.797Z,51.40
2019-03-31T14:38:13.633Z,51.60
2019-03-31T14:40:40.473Z,52.00
2019-03-31T14:43:07.322Z,54.20
2019-03-31T14:45:34.374Z,54.80
2019-03-31T14:48:01.489Z,54.00
2019-03-31T14:50:33.286Z,54.70
2019-03-31T14:53:00.777Z,53.90
2019-03-31T14:55:27.642Z,54.40
2019-03-31T14:57:54.551Z,54.60
2019-03-31T15:00:21.717Z,54.30
2019-03-31T15:02:48.508Z,54.80
2019-03-31T15:05:15.772Z,54.30
2019-03-31T15:07:42.608Z,54.30
2019-03-31T15:10:09.395Z,54.30
2019-03-31T15:12:36.228Z,54.30
2019-03-31T15:15:04.425Z,54.20
2019-03-31T15:17:31.274Z,54.50
2019-03-31T15:19:58.114Z,54.70
2019-03-31T15:22:24.957Z,54.50
2019-03-31T15:24:51.741Z,55.30
2019-03-31T15:27:18.550Z,55.70
2019-03-31T15:29:46.382Z,56.30
2019-03-31T15:32:13.153Z,56.20
2019-03-31T15:34:39.996Z,55.10
2019-03-31T15:37:06.791Z,54.40
2019-03-31T15:39:33.628Z,55.60
2019-03-31T15:42:00.620Z,56.40
2019-03-31T15:44:27.415Z,56.80
2019-03-31T15:46:54.249Z,56.00
2019-03-31T15:49:21.032Z,55.60
2019-03-31T15:51:47.875Z,56.30
2019-03-31T15:54:14.725Z,56.40
2019-03-31T15:56:41.573Z,55.80
2019-03-31T15:59:08.420Z,56.70
2019-03-31T16:01:35.201Z,56.20
2019-03-31T16:04:02.037Z,56.70
2019-03-31T16:06:29.115Z,56.40
2019-03-31T16:08:55.972Z,56.40
2019-03-31T16:11:23.016Z,56.40
2019-03-31T16:13:49.800Z,56.80
2019-03-31T16:16:16.634Z,56.70
2019-03-31T16:18:43.420Z,56.70
2019-03-31T16:21:10.265Z,57.20
2019-03-31T16:23:37.241Z,57.00
2019-03-31T16:26:04.108Z,57.00
2019-03-31T16:28:30.956Z,57.40
2019-03-31T16:30:57.742Z,57.70
2019-03-31T16:33:24.608Z,57.20
2019-03-31T16:35:51.353Z,57.30
2019-03-31T16:38:18.185Z,57.60
2019-03-31T16:40:44.969Z,57.20
2019-03-31T16:43:11.852Z,57.70
2019-03-31T16:45:38.688Z,57.40
2019-03-31T16:48:05.468Z,58.00
2019-03-31T16:50:32.304Z,57.60
2019-03-31T16:52:59.106Z,58.40
2019-03-31T16:55:25.947Z,58.10
2019-03-31T16:57:52.727Z,59.30
2019-03-31T17:00:19.564Z,59.20
2019-03-31T17:02:46.401Z,59.40
2019-03-31T17:05:21.605Z,59.60
2019-03-31T17:07:41.904Z,59.70
2019-03-31T17:10:08.700Z,59.90
2019-03-31T17:12:35.533Z,59.90
2019-03-31T17:15:04.816Z,59.90
2019-03-31T17:17:31.659Z,59.60
2019-03-31T17:19:58.556Z,60.50
2019-03-31T17:22:25.355Z,60.00
2019-03-31T17:24:52.189Z,59.80
2019-03-31T17:27:19.041Z,60.40
2019-03-31T17:29:45.830Z,60.30
2019-03-31T17:32:12.616Z,60.80
2019-03-31T17:34:39.465Z,60.60
2019-03-31T17:37:06.310Z,61.00
2019-03-31T17:39:33.095Z,61.20
2019-03-31T17:42:00.006Z,61.60
2019-03-31T17:44:26.852Z,61.70
2019-03-31T17:46:53.641Z,61.50
2019-03-31T17:49:20.483Z,62.10
2019-03-31T17:51:47.560Z,62.70
2019-03-31T17:54:14.404Z,62.30
2019-03-31T17:56:41.248Z,62.70
2019-03-31T17:59:09.045Z,62.60
2019-03-31T18:01:36.117Z,62.90
2019-03-31T18:04:03.061Z,63.30
2019-03-31T18:06:29.941Z,63.80
2019-03-31T18:08:56.749Z,64.50
2019-03-31T18:11:24.293Z,64.80
2019-03-31T18:13:51.104Z,65.10
2019-03-31T18:16:17.957Z,65.10
2019-03-31T18:18:44.767Z,64.90
2019-03-31T18:21:11.600Z,64.80
2019-03-31T18:23:38.388Z,65.10
2019-03-31T18:26:05.249Z,65.20
2019-03-31T18:28:32.088Z,65.40
2019-03-31T18:30:58.976Z,65.30
2019-03-31T18:33:25.973Z,66.30
2019-03-31T18:35:52.817Z,65.70
2019-03-31T18:38:19.695Z,65.00
2019-03-31T18:40:46.485Z,64.10
2019-03-31T18:43:13.380Z,63.80
2019-03-31T18:45:40.229Z,63.90
2019-03-31T18:48:07.014Z,64.70
2019-03-31T18:50:33.853Z,64.90
2019-03-31T18:53:00.893Z,65.10
2019-03-31T18:55:29.490Z,65.20
2019-03-31T18:58:10.084Z,64.60
2019-03-31T19:00:51.251Z,65.40
2019-03-31T19:03:25.893Z,65.90
2019-03-31T19:05:57.237Z,65.60
2019-03-31T19:08:37.685Z,66.20
2019-03-31T19:11:09.137Z,66.50
2019-03-31T19:13:56.162Z,66.40
2019-03-31T19:16:40.124Z,66.40
2019-03-31T19:19:27.126Z,66.30
2019-03-31T19:22:01.357Z,66.60
2019-03-31T19:24:33.006Z,66.70
2019-03-31T19:27:04.242Z,67.00
2019-03-31T19:29:38.560Z,66.80
2019-03-31T19:32:07.206Z,66.60
2019-03-31T19:34:44.709Z,65.90
2019-03-31T19:37:13.354Z,65.50
2019-03-31T19:39:58.725Z,65.70
2019-03-31T19:42:36.258Z,65.90
2019-03-31T19:45:23.090Z,66.50
2019-03-31T19:47:51.745Z,66.20
2019-03-31T19:50:32.192Z,67.00
2019-03-31T19:53:06.760Z,67.40
2019-03-31T19:55:35.421Z,67.90
2019-03-31T19:58:15.872Z,68.40
2019-03-31T20:00:44.586Z,68.40
2019-03-31T20:03:15.728Z,69.00
2019-03-31T20:05:50.156Z,70.00
2019-03-31T20:08:24.697Z,70.10
2019-03-31T20:10:53.354Z,70.10
2019-03-31T20:13:39.906Z,70.50
2019-03-31T20:16:11.497Z,70.40
2019-03-31T20:18:52.557Z,70.60
2019-03-31T20:21:31.815Z,70.80
2019-03-31T20:23:51.605Z,71.00
2019-03-31T20:26:20.245Z,71.20
2019-03-31T20:28:48.848Z,71.20
2019-03-31T20:31:34.114Z,71.60
2019-03-31T20:34:08.562Z,71.50
2019-03-31T20:36:49.170Z,71.50
2019-03-31T20:39:20.710Z,71.70
2019-03-31T20:41:49.357Z,72.00
2019-03-31T20:44:16.351Z,71.90
2019-03-31T20:46:43.193Z,71.90
2019-03-31T20:49:09.976Z,72.20
2019-03-31T20:51:36.829Z,72.80
2019-03-31T20:54:03.688Z,73.10
2019-03-31T20:56:30.545Z,73.30
2019-03-31T20:58:57.337Z,73.70
2019-03-31T21:01:24.121Z,73.70
2019-03-31T21:03:50.968Z,73.40
2019-03-31T21:06:17.810Z,74.50
2019-03-31T21:08:44.601Z,74.80
2019-03-31T21:11:11.445Z,75.30
2019-03-31T21:13:38.281Z,75.90
2019-03-31T21:16:05.068Z,76.10
2019-03-31T21:18:31.919Z,76.10
2019-03-31T21:20:58.741Z,75.90
2019-03-31T21:23:25.588Z,75.60
2019-03-31T21:25:52.380Z,76.10
2019-03-31T21:28:19.169Z,76.30
2019-03-31T21:30:46.024Z,77.10
2019-03-31T21:33:12.820Z,77.30
2019-03-31T21:35:39.671Z,77.10
2019-03-31T21:38:06.548Z,76.80
2019-03-31T21:40:34.285Z,76.80
2019-03-31T21:43:01.141Z,76.90
2019-03-31T21:45:28.883Z,77.00
2019-03-31T21:47:55.730Z,77.10
2019-03-31T21:50:22.513Z,77.20
2019-03-31T21:52:49.404Z,77.60
2019-03-31T21:55:16.251Z,77.50
2019-03-31T21:57:43.055Z,77.70
2019-03-31T22:00:10.237Z,77.60
2019-03-31T22:02:37.077Z,77.50
2019-03-31T22:05:07.437Z,77.80
2019-03-31T22:07:34.281Z,78.10
2019-03-31T22:10:01.080Z,78.00
2019-03-31T22:12:28.019Z,77.80
2019-03-31T22:14:54.851Z,77.60
2019-03-31T22:17:21.668Z,78.20
2019-03-31T22:19:48.505Z,78.20
2019-03-31T22:22:15.334Z,78.30
2019-03-31T22:24:42.169Z,78.70
2019-03-31T22:27:09.010Z,78.70
2019-03-31T22:29:35.858Z,78.80
2019-03-31T22:32:02.693Z,78.60
2019-03-31T22:34:29.480Z,78.70
2019-03-31T22:36:56.316Z,78.40
2019-03-31T22:39:23.116Z,78.50
2019-03-31T22:41:49.952Z,78.30
2019-03-31T22:44:16.812Z,78.60
2019-03-31T22:46:54.115Z,79.50
2019-03-31T22:49:12.263Z,79.70
2019-03-31T22:51:39.104Z,79.10
2019-03-31T22:54:05.901Z,78.70
2019-03-31T22:56:32.718Z,78.50
2019-03-31T22:58:59.609Z,79.10
2019-03-31T23:01:26.392Z,79.00
2019-03-31T23:03:53.257Z,79.10
2019-03-31T23:06:20.043Z,79.10
2019-03-31T23:08:46.879Z,78.90
2019-03-31T23:11:13.838Z,79.20
2019-03-31T23:13:40.599Z,79.20
2019-03-31T23:16:07.441Z,79.10
2019-03-31T23:18:34.481Z,78.80
2019-03-31T23:21:01.274Z,79.00
2019-03-31T23:23:28.164Z,79.10
2019-03-31T23:25:55.096Z,80.20
2019-03-31T23:28:21.889Z,80.60
2019-03-31T23:30:48.675Z,80.60
2019-03-31T23:33:15.716Z,80.80
2019-03-31T23:35:42.509Z,80.80
2019-03-31T23:38:09.345Z,80.90
2019-03-31T23:40:36.129Z,81.20
2019-03-31T23:43:02.960Z,81.70
2019-03-31T23:45:32.262Z,82.00
2019-03-31T23:47:58.441Z,82.20
2019-03-31T23:50:25.228Z,82.60
2019-03-31T23:52:52.068Z,82.60
2019-03-31T23:55:19.455Z,82.80
2019-03-31T23:57:46.840Z,83.00
